• Join FlightAware (Why Join?)
  • Login
  • US Flag 
05:27PM EDT


 

Airport Tracker/Info


-or-


 

Live Flight TrackerFlight Track Log ✈ UCA4838 ✈ 24-Jun-2013 ✈ KROC - KEWR

Flight Track Log - Related Links

Times and Time Zones

All times are in EDT time to prevent confusion due to time zone crossing. See the UCA4838 flight status page for this flight to view local times or setup timezone preferences in your user account.

Time Position Orientation Groundspeed Altitude Reporting Facility
EDT Latitude Longitude Course Direction KTS MPH feet Rate Location/Type
06:32AM 43.0994 -77.6944 124° Southeast 143 165 1,100  Level Cleveland Center
06:33AM 43.0731 -77.6444 126° Southeast 215 247 2,000 1,020 Climbing Cleveland Center
06:34AM 43.0836 -77.5672 79° East 202 232 3,400 1,320 Climbing Cleveland Center
06:35AM 43.0906 -77.5100 81° East 200 230 4,500 1,200 Climbing Cleveland Center
06:36AM 43.0967 -77.4328 84° East 211 243 5,600 1,140 Climbing Cleveland Center
06:37AM 42.8705 -77.1075 124° Southeast  Level FlightAware Approximate
06:37AM 43.0822 -77.3569 105° East 217 250 6,800  Level Cleveland Center
06:38AM 43.0472 -77.3047 133° Southeast 193 222 8,000 960 Climbing Cleveland Center
06:39AM 43.0106 -77.2556 136° Southeast 193 222 8,800 840 Climbing Cleveland Center
06:40AM 42.9714 -77.1978 133° Southeast 198 228 9,700 900 Climbing Cleveland Center
06:41AM 42.9258 -77.1381 136° Southeast 215 247 10,600 960 Climbing Cleveland Center
06:42AM 42.8517 -77.0317 134° Southeast 226 260 12,400 840 Climbing Boston Center
06:43AM 42.8125 -76.9694 131° Southeast 221 254 13,000 300 Climbing Boston Center
06:44AM 42.7761 -76.8875 121° Southeast 226 260 13,000 -60 Level Boston Center
06:45AM 42.7378 -76.7997 121° Southeast 251 289 12,900 -60 Descending Boston Center
06:46AM 42.6975 -76.7094 121° Southeast 272 313 12,900  Level Boston Center
06:47AM 42.6592 -76.6192 120° Southeast 278 320 12,900  Level Boston Center
06:48AM 42.6167 -76.5289 123° Southeast 278 320 12,900  Level Boston Center
06:50AM 42.5742 -76.4331 121° Southeast 278 320 12,900  Level Boston Center
06:51AM 42.5278 -76.3283 121° Southeast 283 326 12,900  Level Boston Center
06:52AM 42.4889 -76.2414 121° Southeast 283 326 12,900  Level Boston Center
06:53AM 42.4542 -76.1606 120° Southeast 283 326 12,900  Level Boston Center
06:54AM 42.4111 -76.0708 123° Southeast 281 323 12,900  Level Boston Center
06:55AM 42.3742 -75.9900 122° Southeast 280 322 12,900  Level Boston Center
06:56AM 42.3331 -75.8978 121° Southeast 271 312 12,900  Level Boston Center
06:57AM 42.2939 -75.8142 122° Southeast 271 312 12,900  Level Boston Center
06:58AM 42.2547 -75.7278 121° Southeast 271 312 12,900  Level Boston Center
06:59AM 42.2136 -75.6386 122° Southeast 271 312 12,900  Level Boston Center
07:00AM 42.1742 -75.5528 122° Southeast 271 312 12,900  Level Boston Center
07:01AM 42.1328 -75.4639 122° Southeast 271 312 12,900  Level Boston Center
07:02AM 42.0933 -75.3781 122° Southeast 271 312 12,900  Level Boston Center
07:03AM 42.0539 -75.2894 121° Southeast 271 312 12,900  Level Boston Center
07:04AM 42.0189 -75.1956 117° Southeast 277 319 13,000  Climbing Boston Center
07:05AM 41.9794 -75.0961 118° Southeast 277 319 13,000  Level Boston Center
07:06AM 41.9442 -75.0025 117° Southeast 277 319 13,000 -360 Level Boston Center
07:07AM 41.8958 -74.9197 128° Southeast 277 319 12,300 -1,020 Descending Boston Center
07:08AM 41.8353 -74.8364 134° Southeast 301 346 11,000 -1,260 Descending Boston Center
07:09AM 41.7783 -74.7592 135° Southeast 306 352 9,800 -1,320 Descending Boston Center
07:10AM 41.7217 -74.6819 135° Southeast 300 345 8,400 -1,200 Descending Boston Center
07:11AM 41.6669 -74.6078 135° Southeast 295 339 7,500 -720 Descending Boston Center
07:12AM 41.6031 -74.5583 150° Southeast 276 318 7,000 -300 Descending Boston Center
07:13AM 41.5319 -74.5700 187° South 256 295 7,000 -360 Level Boston Center
07:15AM 41.3667 -74.6000 188° South 270 311 6,000 -420 Descending New York TRACON
07:16AM 41.3000 -74.5833 169° South 274 315 5,800 -480 Descending New York TRACON
07:17AM 41.2500 -74.5167 135° Southeast 278 320 5,100 -480 Descending New York TRACON
07:18AM 41.2000 -74.4500 135° Southeast 279 321 5,000 -60 Descending New York TRACON
07:19AM 41.1333 -74.3833 143° Southeast 271 312 5,000  Level New York TRACON
07:20AM 41.0833 -74.3333 143° Southeast 267 307 5,000  Level New York TRACON
07:21AM 41.0333 -74.2667 135° Southeast 266 306 5,000 -420 Level New York TRACON
07:22AM 40.9667 -74.2000 143° Southeast 272 313 4,300 -540 Descending New York TRACON
07:23AM 40.9167 -74.1500 143° Southeast 244 281 4,000 -420 Descending New York TRACON
07:24AM 40.8833 -74.1000 131° Southeast 208 239 3,500 -720 Descending New York TRACON
07:25AM 40.8333 -74.0833 166° South 205 236 2,700 -960 Descending New York TRACON
07:26AM 40.7833 -74.1167 207° Southwest 199 229 1,700 -960 Descending New York TRACON
07:27AM 40.7333 -74.1333 194° South 168 193 800 -900 Descending New York TRACON
07:29AM 40.6833 -74.1667 143° Southeast  Level FlightAware Approximate
07:36AM 40.6925 -74.1687 143° Southeast  Level Estimated